createdAt,value
2022-10-23T00:01:42.184Z,5.80
2022-10-23T00:04:14.766Z,6.60
2022-10-23T00:06:46.410Z,6.90
2022-10-23T00:09:20.425Z,5.40
2022-10-23T00:11:52.482Z,7.70
2022-10-23T00:14:25.255Z,5.40
2022-10-23T00:16:56.818Z,6.90
2022-10-23T00:19:28.322Z,5.50
2022-10-23T00:21:59.845Z,6.00
2022-10-23T00:24:31.386Z,13.00
2022-10-23T00:29:33.701Z,6.80
2022-10-23T00:32:05.312Z,5.60
2022-10-23T00:34:36.842Z,5.70
2022-10-23T00:37:08.339Z,5.70
2022-10-23T00:39:40.144Z,5.10
2022-10-23T00:42:13.317Z,6.40
2022-10-23T00:45:25.971Z,4.90
2022-10-23T00:47:57.742Z,5.00
2022-10-23T00:50:29.921Z,4.80
2022-10-23T00:53:03.697Z,5.10
2022-10-23T00:55:35.473Z,5.90
2022-10-23T01:00:45.159Z,5.00
2022-10-23T01:03:17.349Z,5.40
2022-10-23T01:05:53.010Z,5.80
2022-10-23T01:08:27.727Z,5.70
2022-10-23T01:11:01.382Z,6.00
2022-10-23T01:13:38.999Z,5.50
2022-10-23T01:16:13.145Z,4.60
2022-10-23T01:18:46.096Z,6.70
2022-10-23T01:21:20.482Z,5.70
2022-10-23T01:24:13.981Z,5.80
2022-10-23T01:26:56.840Z,7.20
2022-10-23T01:29:31.248Z,5.00
2022-10-23T01:32:04.960Z,5.60
2022-10-23T01:34:40.512Z,8.10
2022-10-23T01:37:13.581Z,7.00
2022-10-23T01:39:48.373Z,5.60
2022-10-23T01:42:21.769Z,5.40
2022-10-23T01:44:55.334Z,5.80
2022-10-23T01:47:28.796Z,5.80
2022-10-23T01:50:05.815Z,4.50
2022-10-23T01:52:38.010Z,4.80
2022-10-23T01:55:11.491Z,9.00
2022-10-23T01:57:43.733Z,4.30
2022-10-23T02:00:18.432Z,6.40
2022-10-23T02:02:56.184Z,4.70
2022-10-23T02:05:33.962Z,4.90
2022-10-23T02:08:06.508Z,5.40
2022-10-23T02:10:41.021Z,4.80
2022-10-23T02:13:14.278Z,4.50
2022-10-23T02:15:48.620Z,4.50
2022-10-23T02:18:28.209Z,4.80
2022-10-23T02:21:00.702Z,4.20
2022-10-23T02:23:33.745Z,4.90
2022-10-23T02:26:07.858Z,4.80
2022-10-23T02:28:41.776Z,7.40
2022-10-23T02:31:14.834Z,3.90
2022-10-23T02:33:47.037Z,4.80
2022-10-23T02:36:19.349Z,4.00
2022-10-23T02:38:50.933Z,4.20
2022-10-23T02:41:29.467Z,4.10
2022-10-23T02:44:15.016Z,3.60
2022-10-23T02:46:54.886Z,3.70
2022-10-23T02:49:29.407Z,4.90
2022-10-23T02:52:06.292Z,3.60
2022-10-23T02:54:56.564Z,3.50
2022-10-23T02:57:31.489Z,3.50
2022-10-23T03:00:07.665Z,4.20
2022-10-23T03:02:44.725Z,3.80
2022-10-23T03:05:21.583Z,4.00
2022-10-23T03:07:53.406Z,3.80
2022-10-23T03:10:25.199Z,3.40
2022-10-23T03:12:58.024Z,5.20
2022-10-23T03:15:30.271Z,3.80
2022-10-23T03:20:31.849Z,3.60
2022-10-23T03:23:04.818Z,3.80
2022-10-23T03:25:36.774Z,3.80
2022-10-23T03:28:09.465Z,3.20
2022-10-23T03:33:10.967Z,3.60
2022-10-23T03:35:42.714Z,3.50
2022-10-23T03:40:44.236Z,3.60
2022-10-23T03:43:17.104Z,3.70
2022-10-23T03:45:48.703Z,3.70
2022-10-23T03:48:20.781Z,3.10
2022-10-23T03:50:52.473Z,3.20
2022-10-23T03:53:23.962Z,4.10
2022-10-23T03:55:55.589Z,3.70
2022-10-23T03:58:27.252Z,10.80
2022-10-23T04:00:59.200Z,4.00
2022-10-23T04:03:32.146Z,4.10
2022-10-23T04:06:03.698Z,5.40
2022-10-23T04:08:36.499Z,3.50
2022-10-23T04:11:13.767Z,5.20
2022-10-23T04:13:50.694Z,3.60
2022-10-23T04:16:22.359Z,3.60
2022-10-23T04:18:53.914Z,3.30
2022-10-23T04:21:25.681Z,4.10
2022-10-23T04:24:00.060Z,3.50
2022-10-23T04:26:32.369Z,3.70
2022-10-23T04:29:04.613Z,4.40
2022-10-23T04:31:36.879Z,7.90
2022-10-23T04:34:08.927Z,9.20
2022-10-23T04:36:40.758Z,3.70
2022-10-23T04:39:15.203Z,5.00
2022-10-23T04:41:47.001Z,4.60
2022-10-23T04:44:19.182Z,5.50
2022-10-23T04:49:22.706Z,3.50
2022-10-23T04:52:12.785Z,3.40
2022-10-23T04:54:50.772Z,3.60
2022-10-23T04:57:30.992Z,3.00
2022-10-23T05:00:10.665Z,3.40
2022-10-23T05:02:57.455Z,3.30
2022-10-23T05:05:33.726Z,3.40
2022-10-23T05:08:40.935Z,3.00
2022-10-23T05:11:15.297Z,3.90
2022-10-23T05:13:50.605Z,3.70
2022-10-23T05:16:33.858Z,3.60
2022-10-23T05:19:05.737Z,3.30
2022-10-23T05:21:37.964Z,4.10
2022-10-23T05:24:11.772Z,3.40
2022-10-23T05:26:43.568Z,3.20
2022-10-23T05:29:15.199Z,4.00
2022-10-23T05:34:17.407Z,3.00
2022-10-23T05:36:49.235Z,3.70
2022-10-23T05:39:20.724Z,3.10
2022-10-23T05:41:52.618Z,3.30
2022-10-23T05:44:27.396Z,4.00
2022-10-23T05:47:17.950Z,2.70
2022-10-23T05:50:10.067Z,3.90
2022-10-23T05:53:19.959Z,2.60
2022-10-23T05:55:56.423Z,3.60
2022-10-23T05:58:54.266Z,2.90
2022-10-23T06:01:44.931Z,3.50
2022-10-23T06:04:20.067Z,2.80
2022-10-23T06:07:14.828Z,2.70
2022-10-23T06:09:47.251Z,3.00
2022-10-23T06:12:19.383Z,3.90
2022-10-23T06:14:51.955Z,3.50
2022-10-23T06:17:25.199Z,3.20
2022-10-23T06:20:02.869Z,2.60
2022-10-23T06:22:38.792Z,3.00
2022-10-23T06:25:23.623Z,2.70
2022-10-23T06:27:56.279Z,4.40
2022-10-23T06:30:28.716Z,3.10
2022-10-23T06:33:03.308Z,3.10
2022-10-23T06:35:37.566Z,3.10
2022-10-23T06:38:10.958Z,3.10
2022-10-23T06:40:47.766Z,2.50
2022-10-23T06:43:26.867Z,3.20
2022-10-23T06:46:19.147Z,4.30
2022-10-23T06:49:20.734Z,2.50
2022-10-23T06:51:52.997Z,2.70
2022-10-23T06:54:26.066Z,7.50
2022-10-23T06:57:18.426Z,3.30
2022-10-23T06:59:51.098Z,4.20
2022-10-23T07:02:24.428Z,2.30
2022-10-23T07:04:56.957Z,2.10
2022-10-23T07:07:28.535Z,3.10
2022-10-23T07:10:00.879Z,2.90
2022-10-23T07:12:51.236Z,2.90
2022-10-23T07:15:42.167Z,3.10
2022-10-23T07:18:17.275Z,3.50
2022-10-23T07:21:08.133Z,5.90
2022-10-23T07:28:42.748Z,3.60
2022-10-23T07:31:14.744Z,2.50
2022-10-23T07:34:05.685Z,4.00
2022-10-23T07:36:37.465Z,3.20
2022-10-23T07:39:10.726Z,3.20
2022-10-23T07:41:46.975Z,3.10
2022-10-23T07:44:20.216Z,3.30
2022-10-23T07:46:53.631Z,2.90
2022-10-23T07:49:25.104Z,3.30
2022-10-23T07:51:59.084Z,3.20
2022-10-23T07:54:35.477Z,3.10
2022-10-23T07:57:22.222Z,2.60
2022-10-23T07:59:59.840Z,2.70
2022-10-23T08:02:31.759Z,2.60
2022-10-23T08:05:03.368Z,3.10
2022-10-23T08:07:41.256Z,5.20
2022-10-23T08:10:13.254Z,5.00
2022-10-23T08:12:45.731Z,2.10
2022-10-23T08:15:17.871Z,3.10
2022-10-23T08:18:03.494Z,2.20
2022-10-23T08:20:48.962Z,3.10
2022-10-23T08:23:20.785Z,7.60
2022-10-23T08:25:54.856Z,3.60
2022-10-23T08:28:27.969Z,2.50
2022-10-23T08:31:00.139Z,2.90
2022-10-23T08:33:32.181Z,2.90
2022-10-23T08:36:03.948Z,3.10
2022-10-23T08:38:38.266Z,6.90
2022-10-23T08:41:15.260Z,3.20
2022-10-23T08:43:58.177Z,3.60
2022-10-23T08:46:37.702Z,3.50
2022-10-23T08:49:40.773Z,2.70
2022-10-23T08:52:16.290Z,2.70
2022-10-23T08:54:57.321Z,2.90
2022-10-23T08:57:37.745Z,2.80
2022-10-23T09:00:16.545Z,2.50
2022-10-23T09:02:49.012Z,2.60
2022-10-23T09:05:23.066Z,3.90
2022-10-23T09:08:10.015Z,3.70
2022-10-23T09:10:56.766Z,3.80
2022-10-23T09:13:56.787Z,5.10
2022-10-23T09:16:35.227Z,8.00
2022-10-23T09:19:14.254Z,4.70
2022-10-23T09:21:47.467Z,3.90
2022-10-23T09:24:19.829Z,3.50
2022-10-23T09:26:52.646Z,3.20
2022-10-23T09:29:27.676Z,3.00
2022-10-23T09:32:00.083Z,2.80
2022-10-23T09:34:32.159Z,6.40
2022-10-23T09:37:04.722Z,3.90
2022-10-23T09:39:37.981Z,4.30
2022-10-23T09:42:24.484Z,3.80
2022-10-23T09:44:57.815Z,4.10
2022-10-23T09:47:29.569Z,4.20
2022-10-23T09:50:01.008Z,3.50
2022-10-23T09:52:36.338Z,4.00
2022-10-23T09:55:23.404Z,4.60
2022-10-23T09:57:55.189Z,7.40
2022-10-23T10:00:27.595Z,3.20
2022-10-23T10:03:01.081Z,3.70
2022-10-23T10:05:42.702Z,3.90
2022-10-23T10:08:22.703Z,4.50
2022-10-23T10:10:55.719Z,6.60
2022-10-23T10:13:37.482Z,8.40
2022-10-23T10:16:10.993Z,4.80
2022-10-23T10:18:43.863Z,4.50
2022-10-23T10:21:17.576Z,5.50
2022-10-23T10:23:51.691Z,4.10
2022-10-23T10:29:13.017Z,5.80
2022-10-23T10:31:53.380Z,6.50
2022-10-23T10:34:30.132Z,4.40
2022-10-23T10:37:05.075Z,8.10
2022-10-23T10:39:42.255Z,4.70
2022-10-23T10:42:24.931Z,6.00
2022-10-23T10:45:07.377Z,4.50
2022-10-23T10:47:42.600Z,5.10
2022-10-23T10:50:19.455Z,5.30
2022-10-23T10:53:03.761Z,8.00
2022-10-23T10:55:37.182Z,7.30
2022-10-23T10:58:11.030Z,7.60
2022-10-23T11:00:42.835Z,4.00
2022-10-23T11:03:20.873Z,3.50
2022-10-23T11:05:52.352Z,3.70
2022-10-23T11:08:28.366Z,3.00
2022-10-23T11:11:01.572Z,3.40
2022-10-23T11:13:37.225Z,3.60
2022-10-23T11:16:13.238Z,3.10
2022-10-23T11:18:45.965Z,3.20
2022-10-23T11:21:24.158Z,3.30
2022-10-23T11:24:23.690Z,5.10
2022-10-23T11:27:02.642Z,5.10
2022-10-23T11:29:49.115Z,4.10
2022-10-23T11:32:30.782Z,4.10
2022-10-23T11:35:12.171Z,6.10
2022-10-23T11:37:43.857Z,4.20
2022-10-23T11:40:24.785Z,2.60
2022-10-23T11:42:56.430Z,4.30
2022-10-23T11:45:36.377Z,4.10
2022-10-23T11:48:19.851Z,4.50
2022-10-23T11:50:59.085Z,4.80
2022-10-23T11:56:31.344Z,3.40
2022-10-23T11:59:14.572Z,3.70
2022-10-23T12:01:46.975Z,3.90
2022-10-23T12:04:23.839Z,3.10
2022-10-23T12:06:56.909Z,3.60
2022-10-23T12:09:31.579Z,4.70
2022-10-23T12:12:16.137Z,2.60
2022-10-23T12:14:48.409Z,4.30
2022-10-23T12:17:37.916Z,3.00
2022-10-23T12:20:27.165Z,3.30
2022-10-23T12:23:08.084Z,3.70
2022-10-23T12:25:45.133Z,3.50
2022-10-23T12:28:29.949Z,3.50
2022-10-23T12:36:13.660Z,3.50
2022-10-23T12:38:47.713Z,4.60
2022-10-23T12:41:20.668Z,4.00
2022-10-23T12:43:56.219Z,8.00
2022-10-23T12:46:35.788Z,5.90
2022-10-23T12:49:16.144Z,4.80
2022-10-23T12:51:48.845Z,5.90
2022-10-23T12:54:21.192Z,5.30
2022-10-23T12:56:53.344Z,4.80
2022-10-23T12:59:27.702Z,4.20
2022-10-23T13:02:00.233Z,6.50
2022-10-23T13:04:38.175Z,6.00
2022-10-23T13:07:10.031Z,4.50
2022-10-23T13:09:43.548Z,4.50
2022-10-23T13:12:29.665Z,3.90
2022-10-23T13:15:03.746Z,3.20
2022-10-23T13:17:40.393Z,4.50
2022-10-23T13:20:24.383Z,4.00
2022-10-23T13:23:00.718Z,4.40
2022-10-23T13:25:33.771Z,6.70
2022-10-23T13:28:20.400Z,4.00
2022-10-23T13:31:04.462Z,5.00
2022-10-23T13:33:37.788Z,4.00
2022-10-23T13:36:23.627Z,3.10
2022-10-23T13:39:05.685Z,3.50
2022-10-23T13:41:40.489Z,9.50
2022-10-23T13:44:12.365Z,4.70
2022-10-23T13:46:43.854Z,4.10
2022-10-23T13:49:15.442Z,3.40
2022-10-23T13:51:51.104Z,3.20
2022-10-23T13:54:24.532Z,6.00
2022-10-23T13:56:55.976Z,2.30
2022-10-23T13:59:27.728Z,2.80
2022-10-23T14:02:00.249Z,2.90
2022-10-23T14:04:32.144Z,5.30
2022-10-23T14:09:33.999Z,2.50
2022-10-23T14:12:05.495Z,3.00
2022-10-23T14:14:37.093Z,3.90
2022-10-23T14:19:38.686Z,3.80
2022-10-23T14:22:10.310Z,3.10
2022-10-23T14:27:12.489Z,2.50
2022-10-23T14:29:44.622Z,3.60
2022-10-23T14:32:16.335Z,3.20
2022-10-23T14:34:50.869Z,3.80
2022-10-23T14:37:22.769Z,3.90
2022-10-23T14:39:54.355Z,3.70
2022-10-23T14:42:27.621Z,3.90
2022-10-23T14:45:02.903Z,4.50
2022-10-23T14:47:34.601Z,3.60
2022-10-23T14:50:07.906Z,4.00
2022-10-23T14:52:39.423Z,5.10
2022-10-23T14:55:12.126Z,5.30
2022-10-23T14:57:43.791Z,4.90
2022-10-23T15:00:17.443Z,4.80
2022-10-23T15:02:48.908Z,4.90
2022-10-23T15:05:20.353Z,5.10
2022-10-23T15:07:51.886Z,5.30
2022-10-23T15:10:24.420Z,5.40
2022-10-23T15:12:56.095Z,5.70
2022-10-23T15:15:27.612Z,6.70
2022-10-23T15:17:59.052Z,4.80
2022-10-23T15:20:30.900Z,6.90
2022-10-23T15:23:03.258Z,5.00
2022-10-23T15:25:35.171Z,5.10
2022-10-23T15:28:06.889Z,6.00
2022-10-23T15:33:19.173Z,5.10
2022-10-23T15:35:51.534Z,4.50
2022-10-23T15:38:23.201Z,5.00
2022-10-23T15:43:24.592Z,4.90
2022-10-23T15:45:56.302Z,5.30
2022-10-23T15:48:27.747Z,7.00
2022-10-23T15:51:00.064Z,5.40
2022-10-23T15:53:31.627Z,5.00
2022-10-23T15:56:03.108Z,5.70
2022-10-23T15:58:34.640Z,6.80
2022-10-23T16:01:06.778Z,5.80
2022-10-23T16:03:38.879Z,5.10
2022-10-23T16:06:12.063Z,5.40
2022-10-23T16:08:45.236Z,5.50
2022-10-23T16:11:19.511Z,5.40
2022-10-23T16:13:50.835Z,5.60
2022-10-23T16:16:22.310Z,6.30
2022-10-23T16:18:53.856Z,5.30
2022-10-23T16:21:26.248Z,5.70
2022-10-23T16:23:58.702Z,5.90
2022-10-23T16:26:30.508Z,6.10
2022-10-23T16:31:32.251Z,6.70
2022-10-23T16:34:05.020Z,6.10
2022-10-23T16:36:39.303Z,7.60
2022-10-23T16:39:17.942Z,7.50
2022-10-23T16:42:08.713Z,7.00
2022-10-23T16:44:56.938Z,8.90
2022-10-23T16:47:28.812Z,8.30
2022-10-23T16:52:30.282Z,6.50
2022-10-23T16:55:02.135Z,4.80
2022-10-23T16:57:33.788Z,4.00
2022-10-23T17:00:05.598Z,3.30
2022-10-23T17:05:08.142Z,3.60
2022-10-23T17:07:39.635Z,3.10
2022-10-23T17:12:42.856Z,3.10
2022-10-23T17:15:15.315Z,3.00
2022-10-23T17:17:46.740Z,3.40
2022-10-23T17:20:18.386Z,3.10
2022-10-23T17:22:50.313Z,3.20
2022-10-23T17:25:22.278Z,2.80
2022-10-23T17:30:23.877Z,3.00
2022-10-23T17:32:59.378Z,3.20
2022-10-23T17:35:34.021Z,2.90
2022-10-23T17:38:05.576Z,3.00
2022-10-23T17:40:37.228Z,3.10
2022-10-23T17:45:40.637Z,3.00
2022-10-23T17:48:12.507Z,3.30
2022-10-23T17:50:44.318Z,3.80
2022-10-23T17:53:15.829Z,4.50
2022-10-23T17:55:47.187Z,4.80
2022-10-23T17:58:19.106Z,5.30
2022-10-23T18:00:50.521Z,5.70
2022-10-23T18:03:22.127Z,5.40
2022-10-23T18:05:53.626Z,5.50
2022-10-23T18:08:25.111Z,6.20
2022-10-23T18:10:56.867Z,7.30
2022-10-23T18:15:58.088Z,8.70
2022-10-23T18:18:29.787Z,6.50
2022-10-23T18:21:02.125Z,7.60
2022-10-23T18:23:34.006Z,9.10
2022-10-23T18:26:05.877Z,8.90
2022-10-23T18:28:37.429Z,11.20
2022-10-23T18:31:12.706Z,12.50
2022-10-23T18:33:44.439Z,12.30
2022-10-23T18:36:20.947Z,12.30
2022-10-23T18:38:52.404Z,12.10
2022-10-23T18:41:24.043Z,12.00
2022-10-23T18:46:25.811Z,14.40
2022-10-23T18:48:57.223Z,11.30
2022-10-23T18:51:30.079Z,12.50
2022-10-23T18:54:02.814Z,12.10
2022-10-23T18:56:36.198Z,14.00
2022-10-23T18:59:08.577Z,12.10
2022-10-23T19:01:40.087Z,13.30
2022-10-23T19:04:13.043Z,12.80
2022-10-23T19:06:44.811Z,13.00
2022-10-23T19:11:46.651Z,13.70
2022-10-23T19:14:18.188Z,17.70
2022-10-23T19:16:56.132Z,14.10
2022-10-23T19:19:28.724Z,17.00
2022-10-23T19:22:00.408Z,14.50
2022-10-23T19:24:34.860Z,14.20
2022-10-23T19:27:06.493Z,15.60
2022-10-23T19:29:39.410Z,15.30
2022-10-23T19:32:10.992Z,19.70
2022-10-23T19:34:42.476Z,18.50
2022-10-23T19:39:51.520Z,20.50
2022-10-23T19:42:23.058Z,22.60
2022-10-23T19:44:54.793Z,24.20
2022-10-23T19:47:26.537Z,23.10
2022-10-23T19:52:28.173Z,27.00
2022-10-23T19:54:59.790Z,28.50
2022-10-23T19:57:34.324Z,25.10
2022-10-23T20:00:07.446Z,32.70
2022-10-23T20:02:42.136Z,29.20
2022-10-23T20:05:14.299Z,27.70
2022-10-23T20:07:48.864Z,30.40
2022-10-23T20:10:20.573Z,26.90
2022-10-23T20:12:57.040Z,32.20
2022-10-23T20:15:34.642Z,30.70
2022-10-23T20:18:06.629Z,30.20
2022-10-23T20:20:42.659Z,28.80
2022-10-23T20:23:14.568Z,32.10
2022-10-23T20:28:16.398Z,31.20
2022-10-23T20:30:48.567Z,34.00
2022-10-23T20:33:20.150Z,33.00
2022-10-23T20:35:53.005Z,35.20
2022-10-23T20:38:24.673Z,42.10
2022-10-23T20:41:00.685Z,39.20
2022-10-23T20:43:34.041Z,30.90
2022-10-23T20:46:07.879Z,43.80
2022-10-23T20:48:39.744Z,35.10
2022-10-23T20:51:12.411Z,38.40
2022-10-23T20:53:44.000Z,38.40
2022-10-23T20:56:17.452Z,42.40
2022-10-23T20:58:49.095Z,45.20
2022-10-23T21:01:20.743Z,39.90
2022-10-23T21:03:54.305Z,42.60
2022-10-23T21:06:26.106Z,36.70
2022-10-23T21:08:59.263Z,28.40
2022-10-23T21:11:30.736Z,28.20
2022-10-23T21:14:02.509Z,27.00
2022-10-23T21:19:05.304Z,22.90
2022-10-23T21:21:36.740Z,15.90
2022-10-23T21:24:11.256Z,16.90
2022-10-23T21:26:42.937Z,20.20
2022-10-23T21:31:56.442Z,14.30
2022-10-23T21:34:28.118Z,15.20
2022-10-23T21:37:15.258Z,15.60
2022-10-23T21:39:47.292Z,15.60
2022-10-23T21:42:18.765Z,14.20
2022-10-23T21:44:50.430Z,12.70
2022-10-23T21:49:52.346Z,10.40
2022-10-23T21:54:56.238Z,10.80
2022-10-23T21:57:30.253Z,11.30
2022-10-23T22:00:01.882Z,12.00
2022-10-23T22:02:33.588Z,12.00
2022-10-23T22:07:35.244Z,12.20
2022-10-23T22:12:36.882Z,10.70
2022-10-23T22:15:10.873Z,12.30
2022-10-23T22:17:42.941Z,12.20
2022-10-23T22:21:07.443Z,11.30
2022-10-23T22:24:50.315Z,12.80
2022-10-23T22:27:59.475Z,13.00
2022-10-23T22:30:31.074Z,11.20
2022-10-23T22:33:02.542Z,10.20
2022-10-23T22:35:34.742Z,11.70
2022-10-23T22:38:06.200Z,10.50
2022-10-23T22:40:45.661Z,11.10
2022-10-23T22:43:18.360Z,11.60
2022-10-23T22:48:19.959Z,10.00
2022-10-23T22:53:21.477Z,10.70
2022-10-23T22:55:53.147Z,9.60
2022-10-23T22:58:24.883Z,9.60
2022-10-23T23:03:26.451Z,9.70
2022-10-23T23:05:58.011Z,8.80
2022-10-23T23:08:29.539Z,9.70
2022-10-23T23:11:00.991Z,9.40
2022-10-23T23:13:33.042Z,9.90
2022-10-23T23:16:04.713Z,9.80
2022-10-23T23:21:07.371Z,8.50
2022-10-23T23:23:38.896Z,8.60
2022-10-23T23:26:10.557Z,8.10
2022-10-23T23:28:42.077Z,8.20
2022-10-23T23:31:15.156Z,8.60
2022-10-23T23:33:46.684Z,8.50
2022-10-23T23:36:19.954Z,7.30
2022-10-23T23:38:51.699Z,7.80
2022-10-23T23:41:23.732Z,7.10
2022-10-23T23:43:56.205Z,8.20
2022-10-23T23:46:27.675Z,7.90
2022-10-23T23:48:59.108Z,8.60
2022-10-23T23:54:00.825Z,7.70
2022-10-23T23:56:32.877Z,8.10
2022-10-23T23:59:04.875Z,7.70
